createdAt,value
2017-07-01T00:01:12.173Z,14.70
2017-07-01T00:03:40.425Z,14.70
2017-07-01T00:06:08.541Z,14.70
2017-07-01T00:08:36.683Z,14.80
2017-07-01T00:11:04.999Z,14.80
2017-07-01T00:13:33.115Z,14.80
2017-07-01T00:16:01.278Z,14.80
2017-07-01T00:18:29.415Z,14.70
2017-07-01T00:20:57.557Z,14.70
2017-07-01T00:23:25.762Z,14.70
2017-07-01T00:25:53.899Z,14.70
2017-07-01T00:28:22.064Z,14.60
2017-07-01T00:30:50.202Z,14.60
2017-07-01T00:33:18.454Z,14.70
2017-07-01T00:35:46.585Z,14.60
2017-07-01T00:38:14.768Z,14.60
2017-07-01T00:40:42.902Z,14.60
2017-07-01T00:43:11.140Z,14.60
2017-07-01T00:45:39.288Z,14.60
2017-07-01T00:48:07.532Z,14.60
2017-07-01T00:50:35.648Z,14.60
2017-07-01T00:53:03.878Z,14.50
2017-07-01T00:55:32.012Z,14.60
2017-07-01T00:58:00.163Z,14.50
2017-07-01T01:00:28.296Z,14.60
2017-07-01T01:02:56.408Z,14.60
2017-07-01T01:05:24.583Z,14.60
2017-07-01T01:07:52.712Z,14.50
2017-07-01T01:10:20.837Z,14.60
2017-07-01T01:12:48.974Z,14.60
2017-07-01T01:15:17.142Z,14.50
2017-07-01T01:17:45.367Z,14.50
2017-07-01T01:20:13.482Z,14.50
2017-07-01T01:22:41.606Z,14.50
2017-07-01T01:25:09.852Z,14.50
2017-07-01T01:27:37.986Z,14.60
2017-07-01T01:30:06.130Z,14.60
2017-07-01T01:32:34.423Z,14.60
2017-07-01T01:35:02.583Z,14.60
2017-07-01T01:37:30.962Z,14.60
2017-07-01T01:39:59.099Z,14.60
2017-07-01T01:42:27.241Z,14.50
2017-07-01T01:44:55.472Z,14.60
2017-07-01T01:47:23.617Z,14.60
2017-07-01T01:49:51.817Z,14.50
2017-07-01T01:52:19.962Z,14.50
2017-07-01T01:54:48.191Z,14.50
2017-07-01T01:57:16.773Z,14.50
2017-07-01T01:59:44.899Z,14.60
2017-07-01T02:02:13.048Z,14.60
2017-07-01T02:04:41.176Z,14.60
2017-07-01T02:07:10.201Z,14.60
2017-07-01T02:09:38.350Z,14.60
2017-07-01T02:12:23.029Z,14.50
2017-07-01T02:14:58.445Z,14.50
2017-07-01T02:17:31.209Z,14.60
2017-07-01T02:19:59.375Z,14.60
2017-07-01T02:22:31.995Z,14.60
2017-07-01T02:25:00.603Z,14.60
2017-07-01T02:27:28.715Z,14.50
2017-07-01T02:29:56.824Z,14.60
2017-07-01T02:32:25.066Z,14.60
2017-07-01T02:34:53.951Z,14.50
2017-07-01T02:37:22.099Z,14.50
2017-07-01T02:39:50.247Z,14.50
2017-07-01T02:42:18.409Z,14.40
2017-07-01T02:44:46.586Z,14.40
2017-07-01T02:47:26.572Z,14.50
2017-07-01T02:49:58.221Z,14.50
2017-07-01T02:52:44.200Z,14.50
2017-07-01T02:55:33.078Z,14.50
2017-07-01T02:58:01.239Z,14.50
2017-07-01T03:00:29.487Z,14.40
2017-07-01T03:02:58.553Z,14.50
2017-07-01T03:05:26.695Z,14.60
2017-07-01T03:07:54.814Z,14.50
2017-07-01T03:10:22.966Z,14.50
2017-07-01T03:12:51.093Z,14.50
2017-07-01T03:15:19.323Z,14.50
2017-07-01T03:17:47.546Z,14.50
2017-07-01T03:20:21.660Z,14.50
2017-07-01T03:23:07.111Z,14.50
2017-07-01T03:25:35.346Z,14.50
2017-07-01T03:28:03.588Z,14.40
2017-07-01T03:30:31.707Z,14.40
2017-07-01T03:32:59.919Z,14.40
2017-07-01T03:35:28.092Z,14.50
2017-07-01T03:38:19.926Z,14.40
2017-07-01T03:41:17.660Z,14.40
2017-07-01T03:46:52.506Z,14.50
2017-07-01T03:49:21.434Z,14.40
2017-07-01T03:51:49.567Z,14.40
2017-07-01T03:54:19.232Z,14.50
2017-07-01T03:56:47.402Z,14.40
2017-07-01T03:59:15.513Z,14.50
2017-07-01T04:01:43.667Z,14.50
2017-07-01T04:04:11.806Z,14.40
2017-07-01T04:06:39.983Z,14.50
2017-07-01T04:09:08.112Z,14.40
2017-07-01T04:11:47.960Z,14.40
2017-07-01T04:14:16.120Z,14.40
2017-07-01T04:16:44.280Z,14.50
2017-07-01T04:19:17.881Z,14.50
2017-07-01T04:21:46.005Z,14.50
2017-07-01T04:24:14.161Z,14.50
2017-07-01T04:26:42.286Z,14.50
2017-07-01T04:29:13.325Z,14.50
2017-07-01T04:31:41.465Z,14.50
2017-07-01T04:34:09.696Z,14.50
2017-07-01T04:36:37.869Z,14.60
2017-07-01T04:39:06.695Z,14.50
2017-07-01T04:42:12.300Z,14.60
2017-07-01T04:44:46.249Z,14.60
2017-07-01T04:47:14.422Z,14.60
2017-07-01T04:49:42.564Z,14.60
2017-07-01T04:52:26.485Z,14.60
2017-07-01T04:54:54.707Z,14.60
2017-07-01T04:57:43.264Z,14.70
2017-07-01T05:00:18.885Z,14.70
2017-07-01T05:02:47.040Z,14.70
2017-07-01T05:05:15.729Z,14.70
2017-07-01T05:08:01.695Z,14.70
2017-07-01T05:10:39.539Z,14.70
2017-07-01T05:13:07.744Z,14.70
2017-07-01T05:15:39.553Z,14.80
2017-07-01T05:18:07.700Z,14.80
2017-07-01T05:20:39.463Z,14.80
2017-07-01T05:23:10.372Z,14.80
2017-07-01T05:26:09.159Z,14.80
2017-07-01T05:28:53.165Z,14.80
2017-07-01T05:31:29.580Z,14.70
2017-07-01T05:34:05.327Z,14.70
2017-07-01T05:36:34.961Z,14.80
2017-07-01T05:39:11.635Z,14.80
2017-07-01T05:41:57.353Z,14.80
2017-07-01T05:44:45.316Z,14.80
2017-07-01T05:47:13.438Z,14.90
2017-07-01T05:49:41.633Z,14.80
2017-07-01T05:52:09.785Z,14.80
2017-07-01T05:54:37.933Z,14.90
2017-07-01T05:57:06.065Z,14.90
2017-07-01T05:59:38.492Z,14.90
2017-07-01T06:02:13.269Z,14.90
2017-07-01T06:04:41.451Z,15.20
2017-07-01T06:07:09.589Z,15.30
2017-07-01T06:09:49.407Z,15.40
2017-07-01T06:12:36.405Z,15.30
2017-07-01T06:15:08.905Z,15.30
2017-07-01T06:17:39.968Z,15.30
2017-07-01T06:20:08.988Z,15.30
2017-07-01T06:22:50.699Z,15.30
2017-07-01T06:25:18.854Z,15.20
2017-07-01T06:27:59.848Z,15.30
2017-07-01T06:30:33.925Z,15.20
2017-07-01T06:33:03.859Z,15.20
2017-07-01T06:35:32.413Z,15.20
2017-07-01T06:38:31.053Z,15.20
2017-07-01T06:41:07.868Z,15.20
2017-07-01T06:43:36.012Z,15.20
2017-07-01T06:46:23.439Z,15.20
2017-07-01T06:48:57.122Z,15.20
2017-07-01T06:51:25.256Z,15.30
2017-07-01T06:54:08.935Z,15.20
2017-07-01T06:56:37.065Z,15.30
2017-07-01T06:59:05.180Z,15.20
2017-07-01T07:01:33.321Z,15.30
2017-07-01T07:04:01.451Z,15.30
2017-07-01T07:06:30.175Z,15.30
2017-07-01T07:09:08.205Z,15.30
2017-07-01T07:11:36.385Z,15.40
2017-07-01T07:14:04.531Z,15.50
2017-07-01T07:16:32.681Z,15.60
2017-07-01T07:19:00.794Z,15.50
2017-07-01T07:21:28.955Z,15.60
2017-07-01T07:23:57.149Z,15.60
2017-07-01T07:26:25.284Z,15.60
2017-07-01T07:28:53.416Z,15.60
2017-07-01T07:31:21.586Z,15.60
2017-07-01T07:33:49.767Z,15.60
2017-07-01T07:36:17.976Z,15.70
2017-07-01T07:38:46.133Z,15.70
2017-07-01T07:41:14.274Z,15.80
2017-07-01T07:43:42.465Z,15.80
2017-07-01T07:46:10.599Z,15.90
2017-07-01T07:48:38.744Z,16.00
2017-07-01T07:51:06.887Z,16.00
2017-07-01T07:53:35.040Z,16.00
2017-07-01T07:56:03.193Z,16.10
2017-07-01T07:58:31.567Z,16.30
2017-07-01T08:00:59.685Z,16.30
2017-07-01T08:03:27.841Z,16.30
2017-07-01T08:05:55.957Z,16.30
2017-07-01T08:08:24.261Z,16.30
2017-07-01T08:10:52.422Z,16.20
2017-07-01T08:13:20.659Z,16.20
2017-07-01T08:15:48.819Z,16.20
2017-07-01T08:18:16.996Z,16.30
2017-07-01T08:20:45.132Z,16.20
2017-07-01T08:23:13.291Z,16.20
2017-07-01T08:25:41.432Z,16.20
2017-07-01T08:28:09.578Z,16.20
2017-07-01T08:30:37.763Z,16.20
2017-07-01T08:33:05.906Z,16.10
2017-07-01T08:35:34.058Z,16.10
2017-07-01T08:38:02.199Z,16.20
2017-07-01T08:40:30.428Z,16.30
2017-07-01T08:42:58.603Z,16.40
2017-07-01T08:45:26.805Z,16.40
2017-07-01T08:47:54.959Z,16.40
2017-07-01T08:50:23.130Z,16.40
2017-07-01T08:52:51.310Z,16.30
2017-07-01T08:55:19.450Z,16.40
2017-07-01T08:57:47.605Z,16.30
2017-07-01T09:00:15.748Z,16.40
2017-07-01T09:02:43.886Z,16.40
2017-07-01T09:05:12.385Z,16.40
2017-07-01T09:07:40.534Z,16.40
2017-07-01T09:10:08.675Z,16.40
2017-07-01T09:12:38.910Z,16.50
2017-07-01T09:15:07.061Z,16.70
2017-07-01T09:17:35.197Z,16.80
2017-07-01T09:20:03.375Z,16.80
2017-07-01T09:22:31.559Z,16.90
2017-07-01T09:24:59.711Z,16.90
2017-07-01T09:27:27.925Z,16.90
2017-07-01T09:29:56.093Z,16.90
2017-07-01T09:32:24.265Z,16.90
2017-07-01T09:34:52.475Z,16.90
2017-07-01T09:37:20.623Z,16.90
2017-07-01T09:39:48.804Z,16.90
2017-07-01T09:42:16.966Z,17.00
2017-07-01T09:44:45.155Z,17.00
2017-07-01T09:47:13.427Z,17.10
2017-07-01T09:49:41.555Z,17.20
2017-07-01T09:52:09.702Z,17.20
2017-07-01T09:54:37.850Z,17.10
2017-07-01T09:57:05.994Z,17.10
2017-07-01T09:59:34.117Z,17.10
2017-07-01T10:02:02.279Z,17.10
2017-07-01T10:04:30.453Z,17.10
2017-07-01T10:06:58.641Z,17.20
2017-07-01T10:09:26.781Z,17.10
2017-07-01T10:11:54.903Z,17.20
2017-07-01T10:14:23.048Z,17.20
2017-07-01T10:16:51.239Z,17.20
2017-07-01T10:19:19.527Z,17.20
2017-07-01T10:21:47.674Z,17.10
2017-07-01T10:24:15.843Z,16.90
2017-07-01T10:26:44.012Z,16.80
2017-07-01T10:29:12.195Z,16.80
2017-07-01T10:31:40.331Z,16.80
2017-07-01T10:34:08.472Z,16.70
2017-07-01T10:36:36.641Z,16.70
2017-07-01T10:39:04.826Z,16.60
2017-07-01T10:41:32.971Z,16.70
2017-07-01T10:44:01.099Z,16.70
2017-07-01T10:46:29.273Z,16.70
2017-07-01T10:48:57.642Z,16.70
2017-07-01T10:51:25.745Z,16.80
2017-07-01T10:53:53.901Z,16.70
2017-07-01T10:56:22.063Z,16.80
2017-07-01T10:58:50.196Z,16.80
2017-07-01T11:01:18.308Z,16.90
2017-07-01T11:03:46.483Z,16.90
2017-07-01T11:06:14.622Z,17.10
2017-07-01T11:08:42.759Z,17.10
2017-07-01T11:11:11.473Z,17.00
2017-07-01T11:13:39.633Z,17.00
2017-07-01T11:16:07.809Z,16.90
2017-07-01T11:18:35.948Z,17.00
2017-07-01T11:21:04.110Z,17.00
2017-07-01T11:23:32.237Z,17.10
2017-07-01T11:26:00.690Z,17.20
2017-07-01T11:28:28.862Z,17.30
2017-07-01T11:30:57.072Z,17.10
2017-07-01T11:33:25.207Z,17.00
2017-07-01T11:35:54.293Z,17.10
2017-07-01T11:38:22.428Z,17.10
2017-07-01T11:40:50.625Z,17.00
2017-07-01T11:43:19.490Z,16.90
2017-07-01T11:45:47.664Z,16.90
2017-07-01T11:48:16.558Z,16.90
2017-07-01T11:50:44.966Z,16.90
2017-07-01T11:53:13.085Z,16.90
2017-07-01T11:55:41.270Z,16.80
2017-07-01T11:58:09.541Z,16.80
2017-07-01T12:00:37.648Z,16.90
2017-07-01T12:03:05.830Z,16.80
2017-07-01T12:05:33.971Z,16.80
2017-07-01T12:08:03.086Z,16.90
2017-07-01T12:10:31.198Z,16.90
2017-07-01T12:12:59.382Z,17.00
2017-07-01T12:15:27.510Z,17.00
2017-07-01T12:17:55.692Z,17.10
2017-07-01T12:20:23.879Z,17.10
2017-07-01T12:22:52.007Z,17.20
2017-07-01T12:25:20.151Z,17.20
2017-07-01T12:27:49.094Z,17.30
2017-07-01T12:30:17.292Z,17.30
2017-07-01T12:32:45.498Z,17.30
2017-07-01T12:35:14.391Z,17.30
2017-07-01T12:37:42.506Z,17.20
2017-07-01T12:40:10.664Z,17.40
2017-07-01T12:42:38.800Z,17.50
2017-07-01T12:45:06.951Z,17.60
2017-07-01T12:47:35.271Z,17.50
2017-07-01T12:50:03.419Z,17.50
2017-07-01T12:52:31.522Z,17.40
2017-07-01T12:54:59.730Z,17.30
2017-07-01T12:57:28.625Z,17.20
2017-07-01T12:59:56.734Z,17.20
2017-07-01T13:02:25.834Z,17.00
2017-07-01T13:04:53.965Z,17.00
2017-07-01T13:07:22.218Z,16.90
2017-07-01T13:09:50.364Z,16.70
2017-07-01T13:12:18.584Z,16.70
2017-07-01T13:14:46.710Z,16.60
2017-07-01T13:17:15.630Z,16.80
2017-07-01T13:19:43.794Z,16.80
2017-07-01T13:22:11.946Z,16.90
2017-07-01T13:24:40.121Z,17.00
2017-07-01T13:27:08.276Z,17.10
2017-07-01T13:29:36.454Z,17.10
2017-07-01T13:32:04.581Z,17.00
2017-07-01T13:34:33.103Z,17.00
2017-07-01T13:37:01.235Z,17.00
2017-07-01T13:39:29.428Z,16.90
2017-07-01T13:41:57.645Z,16.90
2017-07-01T13:44:25.843Z,16.80
2017-07-01T13:46:54.013Z,16.90
2017-07-01T13:49:22.199Z,16.90
2017-07-01T13:51:52.036Z,17.10
2017-07-01T13:54:20.187Z,17.00
2017-07-01T13:56:48.336Z,17.10
2017-07-01T13:59:16.565Z,17.10
2017-07-01T14:01:44.808Z,16.90
2017-07-01T14:04:12.957Z,16.80
2017-07-01T14:06:41.893Z,16.70
2017-07-01T14:09:10.066Z,16.70
2017-07-01T14:11:38.244Z,16.60
2017-07-01T14:14:06.437Z,16.60
2017-07-01T14:16:34.589Z,16.60
2017-07-01T14:19:02.735Z,16.40
2017-07-01T14:21:31.108Z,16.30
2017-07-01T14:23:59.714Z,16.30
2017-07-01T14:26:27.938Z,16.30
2017-07-01T14:28:56.091Z,16.20
2017-07-01T14:31:24.249Z,16.20
2017-07-01T14:33:52.386Z,16.20
2017-07-01T14:36:20.601Z,16.20
2017-07-01T14:38:48.806Z,16.20
2017-07-01T14:41:16.979Z,16.30
2017-07-01T14:43:45.119Z,16.30
2017-07-01T14:46:13.257Z,16.30
2017-07-01T14:48:41.376Z,16.30
2017-07-01T14:51:09.555Z,16.30
2017-07-01T14:53:38.478Z,16.40
2017-07-01T14:56:07.248Z,16.40
2017-07-01T14:58:35.991Z,16.50
2017-07-01T15:01:04.316Z,16.50
2017-07-01T15:03:32.465Z,16.50
2017-07-01T15:06:00.620Z,16.50
2017-07-01T15:08:29.691Z,16.50
2017-07-01T15:10:57.890Z,16.50
2017-07-01T15:13:26.845Z,16.40
2017-07-01T15:15:54.994Z,16.30
2017-07-01T15:18:23.173Z,16.40
2017-07-01T15:20:51.444Z,16.20
2017-07-01T15:23:19.699Z,16.10
2017-07-01T15:25:47.863Z,16.10
2017-07-01T15:28:16.674Z,16.10
2017-07-01T15:30:44.900Z,16.30
2017-07-01T15:33:13.103Z,16.30
2017-07-01T15:35:41.241Z,16.30
2017-07-01T15:38:09.368Z,16.30
2017-07-01T15:40:38.471Z,16.30
2017-07-01T15:43:07.253Z,16.30
2017-07-01T15:45:35.579Z,16.40
2017-07-01T15:48:03.725Z,16.50
2017-07-01T15:50:31.996Z,16.40
2017-07-01T15:53:00.777Z,16.40
2017-07-01T15:55:28.982Z,16.40
2017-07-01T15:57:57.930Z,16.50
2017-07-01T16:00:37.939Z,16.40
2017-07-01T16:03:06.069Z,16.50
2017-07-01T16:05:34.188Z,16.40
2017-07-01T16:08:02.326Z,16.40
2017-07-01T16:10:30.462Z,16.40
2017-07-01T16:12:58.592Z,16.50
2017-07-01T16:15:26.727Z,16.40
2017-07-01T16:17:54.888Z,16.40
2017-07-01T16:20:23.870Z,16.30
2017-07-01T16:22:53.060Z,16.30
2017-07-01T16:25:21.179Z,16.30
2017-07-01T16:27:49.343Z,16.40
2017-07-01T16:30:17.491Z,16.50
2017-07-01T16:32:45.628Z,16.50
2017-07-01T16:35:13.769Z,16.60
2017-07-01T16:37:41.897Z,16.50
2017-07-01T16:40:10.066Z,16.50
2017-07-01T16:42:38.190Z,16.50
2017-07-01T16:45:06.327Z,16.60
2017-07-01T16:47:34.475Z,16.50
2017-07-01T16:50:02.608Z,16.60
2017-07-01T16:52:31.068Z,16.60
2017-07-01T16:54:59.204Z,16.60
2017-07-01T16:57:27.356Z,16.70
2017-07-01T16:59:56.327Z,16.70
2017-07-01T17:02:24.441Z,16.70
2017-07-01T17:04:52.582Z,16.60
2017-07-01T17:07:21.273Z,16.50
2017-07-01T17:09:49.423Z,16.50
2017-07-01T17:12:17.580Z,16.60
2017-07-01T17:14:45.807Z,16.60
2017-07-01T17:17:14.019Z,16.50
2017-07-01T17:19:42.137Z,16.50
2017-07-01T17:22:10.302Z,16.50
2017-07-01T17:24:38.823Z,16.50
2017-07-01T17:27:06.961Z,16.40
2017-07-01T17:29:35.094Z,16.50
2017-07-01T17:32:04.319Z,16.60
2017-07-01T17:34:32.466Z,16.40
2017-07-01T17:37:00.681Z,16.30
2017-07-01T17:39:28.804Z,16.40
2017-07-01T17:41:57.012Z,16.20
2017-07-01T17:44:25.173Z,16.10
2017-07-01T17:46:53.346Z,16.10
2017-07-01T17:49:21.493Z,16.10
2017-07-01T17:51:49.633Z,16.20
2017-07-01T17:54:17.767Z,16.30
2017-07-01T17:56:45.922Z,16.30
2017-07-01T17:59:14.078Z,16.30
2017-07-01T18:01:42.422Z,16.40
2017-07-01T18:04:11.157Z,16.40
2017-07-01T18:06:39.312Z,16.50
2017-07-01T18:09:08.182Z,16.60
2017-07-01T18:11:36.331Z,16.50
2017-07-01T18:14:04.462Z,16.60
2017-07-01T18:16:32.584Z,16.40
2017-07-01T18:19:00.727Z,16.30
2017-07-01T18:21:29.775Z,16.30
2017-07-01T18:23:57.952Z,16.30
2017-07-01T18:26:26.121Z,16.30
2017-07-01T18:28:54.268Z,16.40
2017-07-01T18:31:22.494Z,16.40
2017-07-01T18:33:51.829Z,16.50
2017-07-01T18:36:21.168Z,16.60
2017-07-01T18:38:49.313Z,16.70
2017-07-01T18:41:17.599Z,16.70
2017-07-01T18:43:46.464Z,16.70
2017-07-01T18:46:14.583Z,16.80
2017-07-01T18:48:43.589Z,16.80
2017-07-01T18:51:12.528Z,16.90
2017-07-01T18:53:41.633Z,16.90
2017-07-01T18:56:09.757Z,16.90
2017-07-01T18:58:39.115Z,16.90
2017-07-01T19:01:07.330Z,17.00
2017-07-01T19:03:36.346Z,17.00
2017-07-01T19:06:07.406Z,17.10
2017-07-01T19:08:35.594Z,17.10
2017-07-01T19:11:04.658Z,17.10
2017-07-01T19:13:32.804Z,17.10
2017-07-01T19:16:00.949Z,17.10
2017-07-01T19:18:29.760Z,17.10
2017-07-01T19:20:58.800Z,17.00
2017-07-01T19:23:26.963Z,17.00
2017-07-01T19:25:55.956Z,16.80
2017-07-01T19:28:24.777Z,16.80
2017-07-01T19:30:54.216Z,16.60
2017-07-01T19:33:22.392Z,16.60
2017-07-01T19:35:50.522Z,16.60
2017-07-01T19:38:19.481Z,16.40
2017-07-01T19:40:48.208Z,16.30
2017-07-01T19:43:16.403Z,16.20
2017-07-01T19:45:44.647Z,16.20
2017-07-01T19:48:13.263Z,16.00
2017-07-01T19:50:41.531Z,16.00
2017-07-01T19:53:09.685Z,15.90
2017-07-01T19:55:37.874Z,15.90
2017-07-01T19:58:06.044Z,15.80
2017-07-01T20:00:35.363Z,15.60
2017-07-01T20:03:03.554Z,15.60
2017-07-01T20:05:32.760Z,15.60
2017-07-01T20:08:02.013Z,15.60
2017-07-01T20:10:30.862Z,15.60
2017-07-01T20:12:59.858Z,15.50
2017-07-01T20:15:28.016Z,15.50
2017-07-01T20:17:56.224Z,15.60
2017-07-01T20:20:25.284Z,15.50
2017-07-01T20:22:55.054Z,15.50
2017-07-01T20:25:23.610Z,15.50
2017-07-01T20:27:52.567Z,15.40
2017-07-01T20:30:20.930Z,15.40
2017-07-01T20:32:49.754Z,15.40
2017-07-01T20:35:17.957Z,15.30
2017-07-01T20:37:46.167Z,15.30
2017-07-01T20:40:14.330Z,15.30
2017-07-01T20:42:42.489Z,15.40
2017-07-01T20:45:10.689Z,15.40
2017-07-01T20:47:39.649Z,15.30
2017-07-01T20:50:08.815Z,15.30
2017-07-01T20:52:36.978Z,15.30
2017-07-01T20:55:05.127Z,15.30
2017-07-01T20:57:34.089Z,15.30
2017-07-01T21:00:02.247Z,15.20
2017-07-01T21:02:30.421Z,15.30
2017-07-01T21:04:58.556Z,15.30
2017-07-01T21:07:26.733Z,15.40
2017-07-01T21:09:55.547Z,15.30
2017-07-01T21:12:23.703Z,15.30
2017-07-01T21:14:52.701Z,15.30
2017-07-01T21:17:22.319Z,15.40
2017-07-01T21:19:50.458Z,15.30
2017-07-01T21:22:18.603Z,15.40
2017-07-01T21:24:46.771Z,15.40
2017-07-01T21:27:14.924Z,15.40
2017-07-01T21:29:43.164Z,15.40
2017-07-01T21:32:11.283Z,15.40
2017-07-01T21:34:40.612Z,15.40
2017-07-01T21:37:09.177Z,15.40
2017-07-01T21:39:37.326Z,15.40
2017-07-01T21:42:05.500Z,15.40
2017-07-01T21:44:33.650Z,15.40
2017-07-01T21:47:01.807Z,15.40
2017-07-01T21:49:30.067Z,15.50
2017-07-01T21:51:58.185Z,15.40
2017-07-01T21:54:26.402Z,15.50
2017-07-01T21:56:54.502Z,15.50
2017-07-01T21:59:23.440Z,15.50
2017-07-01T22:01:52.752Z,15.40
2017-07-01T22:04:21.882Z,15.50
2017-07-01T22:06:50.759Z,15.40
2017-07-01T22:09:19.543Z,15.50
2017-07-01T22:11:48.504Z,15.50
2017-07-01T22:14:16.695Z,15.50
2017-07-01T22:16:45.645Z,15.50
2017-07-01T22:19:13.782Z,15.50
2017-07-01T22:21:42.747Z,15.50
2017-07-01T22:24:10.894Z,15.60
2017-07-01T22:26:39.120Z,15.50
2017-07-01T22:29:07.265Z,15.60
2017-07-01T22:31:35.414Z,15.60
2017-07-01T22:34:03.601Z,15.50
2017-07-01T22:36:31.788Z,15.40
2017-07-01T22:38:59.964Z,15.40
2017-07-01T22:41:28.128Z,15.40
2017-07-01T22:43:56.266Z,15.50
2017-07-01T22:46:24.448Z,15.50
2017-07-01T22:48:52.584Z,15.50
2017-07-01T22:51:20.724Z,15.40
2017-07-01T22:53:49.538Z,15.30
2017-07-01T22:56:17.731Z,15.30
2017-07-01T22:58:46.678Z,15.30
2017-07-01T23:01:14.832Z,15.30
2017-07-01T23:03:43.011Z,15.30
2017-07-01T23:06:11.175Z,15.40
2017-07-01T23:08:39.375Z,15.30
2017-07-01T23:11:07.885Z,15.20
2017-07-01T23:13:36.022Z,15.20
2017-07-01T23:16:04.202Z,15.20
2017-07-01T23:18:32.397Z,15.10
2017-07-01T23:21:00.573Z,15.20
2017-07-01T23:23:29.282Z,15.20
2017-07-01T23:25:57.732Z,15.20
2017-07-01T23:28:25.843Z,15.30
2017-07-01T23:30:53.957Z,15.40
2017-07-01T23:33:22.281Z,15.40
2017-07-01T23:35:50.404Z,15.40
2017-07-01T23:38:20.128Z,15.50
2017-07-01T23:40:48.271Z,15.50
2017-07-01T23:43:18.223Z,15.50
2017-07-01T23:45:46.389Z,15.50
2017-07-01T23:48:15.400Z,15.50
2017-07-01T23:50:44.031Z,15.50
2017-07-01T23:53:12.189Z,15.50
2017-07-01T23:55:40.446Z,15.60
2017-07-01T23:58:08.589Z,15.60
